• Join FlightAware (Why Join?)
  • Login
  • US Flag 
Rudolph Flight #1: Arrived! 
03:44AM EST


 

Airport Tracker/Info


-or-


 

Live Flight TrackerFlight Track Log ✈ N241GA ✈ 20-Aug-2013 ✈ KHLB - KARR

Flight Track Log - Related Links

Times and Time Zones

All times are in EDT time to prevent confusion due to time zone crossing. See the N241GA flight status page for this flight to view local times or setup timezone preferences in your user account.

Time Position Orientation Groundspeed Altitude Reporting Facility
EDT Latitude Longitude Course Direction KTS MPH feet Rate Location/Type
02:13PM 39.3500 -85.2833 311° West 136 157 2,600  Level Cincinnati TRACON
02:14PM 39.3833 -85.3333 311° West 150 173 2,900 240 Climbing Cincinnati TRACON
02:15PM 39.3947 -85.3453 321° Northwest 153 176 3,000 480 Climbing Chicago Center
02:16PM 39.4269 -85.3867 315° West 157 181 3,700 660 Climbing Indianapolis Center
02:17PM 39.4556 -85.4264 313° West 155 178 4,400 600 Climbing Indianapolis Center
02:18PM 39.4883 -85.4783 309° West 155 178 5,000 600 Climbing Indianapolis Center
02:19PM 39.5136 -85.5225 307° West 155 178 5,700 720 Climbing Indianapolis Center
02:20PM 39.5397 -85.5547 316° Northwest 138 159 6,600 780 Climbing Indianapolis Center
02:21PM 39.5714 -85.5808 328° Northwest 134 154 7,400 720 Climbing Indianapolis Center
02:22PM 39.5989 -85.6100 321° Northwest 132 152 8,100 240 Climbing Indianapolis Center
02:23PM 39.6286 -85.6506 314° West 153 176 8,000 -60 Descending Indianapolis Center
02:24PM 39.6586 -85.6967 310° West 165 190 8,000  Level Indianapolis Center
02:25PM 39.7031 -85.7389 324° Northwest 165 190 8,000  Level Indianapolis Center
02:26PM 39.7353 -85.7803 315° West 164 189 8,000  Level Indianapolis Center
02:27PM 39.7647 -85.8258 310° West 165 190 8,000  Level Indianapolis Center
02:28PM 39.7964 -85.8694 313° West 166 191 8,000  Level Indianapolis Center
02:29PM 39.8294 -85.9108 316° Northwest 167 192 8,000  Level Indianapolis Center
02:30PM 39.8706 -85.9583 318° Northwest 166 191 8,000  Level Indianapolis Center
02:31PM 39.9067 -85.9956 322° Northwest 166 191 8,000  Level Indianapolis Center
02:32PM 39.9467 -86.0253 330° Northwest 167 192 8,000  Level Indianapolis Center
02:33PM 39.9703 -86.0761 301° West 166 191 8,000  Level Indianapolis Center
02:34PM 39.9914 -86.1281 298° West 165 190 8,000  Level Indianapolis Center
02:35PM 40.0083 -86.1825 292° West 164 189 8,000  Level Indianapolis Center
02:36PM 40.0275 -86.2478 291° West 163 188 8,000  Level Indianapolis Center
02:37PM 40.0672 -86.2839 325° Northwest 172 198 8,000  Level Indianapolis Center
02:38PM 40.1064 -86.3156 328° Northwest 170 196 8,000  Level Indianapolis Center
02:39PM 40.1461 -86.3486 328° Northwest 170 196 8,000  Level Indianapolis Center
02:40PM 40.1886 -86.3797 331° Northwest 173 199 8,000  Level Indianapolis Center
02:41PM 40.2306 -86.4075 333° Northwest 172 198 8,000  Level Indianapolis Center
02:43PM 40.2764 -86.4511 324° Northwest 170 196 8,000  Level Indianapolis Center
02:44PM 40.3136 -86.4889 322° Northwest 170 196 8,000  Level Indianapolis Center
02:45PM 40.3458 -86.5303 316° Northwest 166 191 8,000  Level Indianapolis Center
02:46PM 40.3825 -86.5847 311° West 165 190 8,000  Level Chicago Center
02:47PM 40.4139 -86.6358 309° West 163 188 8,000  Level Chicago Center
02:48PM 40.4436 -86.6761 314° West 162 186 8,000  Level Chicago Center
02:49PM 40.4753 -86.7217 312° West 165 190 8,000  Level Chicago Center
02:50PM 40.5072 -86.7647 314° West 165 190 8,000  Level Chicago Center
02:51PM 40.5386 -86.8133 310° West 165 190 8,000  Level Chicago Center
02:52PM 40.5683 -86.8564 312° West 166 191 8,000  Level Chicago Center
02:53PM 40.6025 -86.9042 313° West 166 191 8,000  Level Chicago Center
02:54PM 40.6383 -86.9589 311° West 167 192 8,000  Level Chicago Center
02:55PM 40.6675 -87.0019 312° West 161 185 8,000  Level Chicago Center
02:56PM 40.6933 -87.0511 305° West 163 188 8,000  Level Chicago Center
02:57PM 40.7219 -87.0964 310° West 161 185 8,000  Level Chicago Center
02:58PM 40.7592 -87.1328 323° Northwest 165 190 8,000  Level Chicago Center
02:59PM 40.8078 -87.1692 330° Northwest 168 193 8,000  Level Chicago Center
03:00PM 40.8381 -87.2128 313° West 165 190 8,000  Level Chicago Center
03:01PM 40.8619 -87.2653 301° West 165 190 8,000  Level Chicago Center
03:02PM 40.8931 -87.3086 314° West 163 188 8,000  Level Chicago Center
03:03PM 40.9233 -87.3539 312° West 165 190 8,000  Level Chicago Center
03:04PM 40.9589 -87.4097 310° West 166 191 8,000 -300 Level Chicago Center
03:06PM 40.9908 -87.4556 313° West 169 194 7,400 -480 Descending Chicago Center
03:07PM 41.0225 -87.5033 311° West 172 198 7,100 -420 Descending Chicago Center
03:08PM 41.0528 -87.5500 311° West 171 197 6,600 -540 Descending Chicago Center
03:09PM 41.0822 -87.6008 308° West 173 199 6,100 -540 Descending Chicago Center
03:10PM 41.1186 -87.6592 310° West 172 198 5,500 -600 Descending Chicago Center
03:11PM 41.1503 -87.7075 311° West 173 199 4,900 -600 Descending Chicago Center
03:12PM 41.1825 -87.7553 312° West 174 200 4,300 -540 Descending Chicago Center
03:13PM 41.2131 -87.8025 311° West 173 199 3,900 -240 Descending Chicago Center
03:14PM 41.2428 -87.8500 310° West 171 197 3,900  Level Chicago Center
03:15PM 41.2775 -87.9056 310° West 166 191 3,900  Level Chicago Center
03:16PM 41.3081 -87.9528 311° West 167 192 3,900  Level Chicago Center
03:17PM 41.3383 -87.9992 311° West 167 192 3,900  Level Chicago Center
03:18PM 41.3678 -88.0453 310° West 165 190 3,900  Level Chicago Center
03:19PM 41.3983 -88.0911 312° West 163 188 3,900  Level Chicago Center
03:20PM 41.4292 -88.1361 312° West 162 186 3,900  Level Chicago Center
03:21PM 41.4606 -88.1811 313° West 165 190 3,900  Level Chicago Center
03:22PM 41.4994 -88.2136 328° Northwest 169 194 4,000  Climbing Chicago Center
03:23PM 41.5444 -88.2594 323° Northwest 168 193 3,900 -60 Descending Chicago Center
03:24PM 41.5811 -88.2944 324° Northwest 165 190 3,900 -180 Level Chicago Center
03:25PM 41.6186 -88.3294 325° Northwest 164 189 3,600 -540 Descending Chicago Center
03:26PM 41.6600 -88.3628 329° Northwest 170 196 2,800 -720 Descending Chicago Center
03:27PM 41.7067 -88.3819 343° North 174 200 2,200 -540 Descending Chicago Center
03:28PM 41.7492 -88.4058 337° Northwest 154 177 1,700 -540 Descending Chicago Center
03:29PM 41.7714 -88.4358 315° West 129 148 1,200 -420 Descending Chicago Center
03:30PM 41.7714 -88.4725 270° West 120 138 900 -300 Descending Chicago Center